Главная страница
METAR-TAF:

METAR-TAF

Аэропорты :

Саннесшёэн, Норвегия

широта: 65-58N, долгота: 012-28E, высота над уровнем моря: 1 м

Текущие метеонаблюдения

Эта сводка был подготовлена 23 минут назад, в 06:20 UTC
Ветер 17 Узел от южный-юго-западный
Температура 10°C
Влажность 76%
Давление 991 hPa
Видимость 10 км и более
небольшая облачность на высоте 1500 фута, Кучево-дождевые.
Отдельные облака на высоте 2500 фута
ливни в окрестностях

METAR: ENST 210620Z 20017KT 9999 VCSH FEW015CB SCT025 10/06 Q0991 RMK WIND 300FT 20023KT

Время: 08:43 (06:43 UTC)


TAF: отсутствует

Метеонаблюдения и прогнозы для более 4000 аэропортов (сводки METAR и TAF).

Имеющиеся станции представлены на карте желтыми и красными точками.

Чтобы увидеть название станции, наведите на нее мышь.

Затем щелкните, чтобы увидеть метеонаблюдения и метеопрогнозы.

Управление картой: чтобы увеличить масштаб, щелкните зеленые кнопки с черным крестиком; чтобы уменьшить масштаб, щелкните зеленую кнопку с тире; для просмотра соседних карт щелкайте зеленые стрелки.


METAR-TAF: